createdAt,value
2022-10-19T00:01:56.518Z,11.50
2022-10-19T00:06:57.988Z,11.52
2022-10-19T00:11:59.559Z,11.52
2022-10-19T00:17:01.003Z,11.41
2022-10-19T00:22:02.476Z,11.32
2022-10-19T00:27:03.864Z,11.27
2022-10-19T00:32:05.903Z,11.25
2022-10-19T00:37:07.323Z,11.23
2022-10-19T00:42:12.156Z,11.28
2022-10-19T00:47:14.353Z,11.28
2022-10-19T00:52:19.526Z,11.25
2022-10-19T00:57:21.725Z,11.15
2022-10-19T01:02:23.155Z,11.09
2022-10-19T01:07:25.433Z,11.10
2022-10-19T01:12:32.917Z,11.16
2022-10-19T01:17:48.585Z,11.00
2022-10-19T01:23:04.303Z,10.91
2022-10-19T01:28:44.716Z,10.95
2022-10-19T01:33:59.301Z,10.90
2022-10-19T01:39:05.001Z,10.76
2022-10-19T01:44:17.530Z,10.58
2022-10-19T01:49:26.923Z,10.81
2022-10-19T01:54:32.849Z,10.76
2022-10-19T01:59:36.224Z,10.70
2022-10-19T02:04:40.803Z,10.73
2022-10-19T02:09:42.331Z,10.58
2022-10-19T02:14:47.303Z,10.37
2022-10-19T02:19:48.807Z,10.41
2022-10-19T02:24:50.355Z,10.45
2022-10-19T02:29:53.641Z,10.27
2022-10-19T02:34:55.104Z,10.30
2022-10-19T02:39:56.551Z,10.43
2022-10-19T02:45:02.360Z,10.34
2022-10-19T02:50:08.747Z,10.17
2022-10-19T02:55:10.346Z,10.19
2022-10-19T03:00:12.207Z,10.04
2022-10-19T03:05:13.726Z,10.07
2022-10-19T03:10:15.202Z,10.03
2022-10-19T03:15:18.470Z,10.05
2022-10-19T03:20:20.207Z,10.02
2022-10-19T03:25:21.589Z,9.94
2022-10-19T03:30:23.041Z,9.93
2022-10-19T03:35:24.539Z,9.97
2022-10-19T03:40:26.089Z,9.89
2022-10-19T03:45:27.468Z,9.81
2022-10-19T03:50:28.847Z,9.68
2022-10-19T03:55:30.279Z,9.52
2022-10-19T04:00:31.684Z,9.59
2022-10-19T04:05:33.163Z,9.47
2022-10-19T04:10:34.662Z,9.74
2022-10-19T04:15:36.460Z,9.79
2022-10-19T04:20:41.961Z,9.71
2022-10-19T04:25:43.395Z,9.60
2022-10-19T04:30:44.798Z,9.64
2022-10-19T04:35:46.184Z,9.70
2022-10-19T04:40:47.597Z,9.74
2022-10-19T04:45:48.998Z,10.17
2022-10-19T04:50:54.867Z,9.75
2022-10-19T04:55:56.664Z,9.95
2022-10-19T05:00:58.130Z,9.78
2022-10-19T05:05:59.788Z,9.77
2022-10-19T05:11:03.546Z,9.82
2022-10-19T05:16:07.078Z,9.56
2022-10-19T05:21:11.430Z,9.68
2022-10-19T05:26:18.198Z,9.60
2022-10-19T05:31:20.808Z,9.67
2022-10-19T05:36:26.436Z,9.52
2022-10-19T05:41:28.030Z,9.49
2022-10-19T05:46:31.247Z,9.43
2022-10-19T05:51:32.833Z,9.56
2022-10-19T05:56:34.530Z,9.55
2022-10-19T06:01:36.818Z,9.47
2022-10-19T06:06:38.256Z,9.55
2022-10-19T06:11:41.929Z,9.46
2022-10-19T06:16:45.627Z,9.54
2022-10-19T06:21:47.057Z,9.42
2022-10-19T06:26:48.535Z,9.40
2022-10-19T06:31:50.107Z,9.44
2022-10-19T06:36:51.582Z,9.47
2022-10-19T06:41:52.991Z,9.40
2022-10-19T06:46:54.487Z,9.55
2022-10-19T06:51:55.885Z,9.49
2022-10-19T06:56:57.314Z,9.70
2022-10-19T07:01:58.835Z,9.73
2022-10-19T07:07:00.234Z,10.20
2022-10-19T07:12:01.808Z,10.05
2022-10-19T07:17:03.303Z,10.19
2022-10-19T07:22:04.789Z,10.43
2022-10-19T07:27:06.179Z,10.29
2022-10-19T07:32:07.605Z,10.32
2022-10-19T07:37:09.030Z,10.50
2022-10-19T07:42:10.496Z,10.48
2022-10-19T07:47:12.016Z,10.65
2022-10-19T07:52:13.686Z,10.66
2022-10-19T07:57:16.043Z,10.66
2022-10-19T08:02:18.029Z,10.75
2022-10-19T08:07:19.557Z,10.79
2022-10-19T08:12:21.039Z,10.85
2022-10-19T08:17:22.562Z,11.01
2022-10-19T08:22:23.988Z,11.07
2022-10-19T08:27:25.576Z,11.05
2022-10-19T08:32:27.019Z,11.25
2022-10-19T08:37:43.846Z,11.38
2022-10-19T08:43:32.814Z,11.61
2022-10-19T08:48:37.935Z,11.74
2022-10-19T08:54:02.353Z,11.79
2022-10-19T08:59:08.897Z,11.95
2022-10-19T09:04:21.506Z,12.02
2022-10-19T09:09:23.899Z,12.17
2022-10-19T09:14:36.263Z,12.30
2022-10-19T09:19:37.795Z,12.46
2022-10-19T09:24:43.828Z,12.55
2022-10-19T09:29:50.340Z,12.67
2022-10-19T09:34:55.383Z,12.85
2022-10-19T09:39:56.943Z,12.91
2022-10-19T09:45:00.791Z,13.09
2022-10-19T09:50:24.176Z,13.24
2022-10-19T09:55:36.786Z,13.41
2022-10-19T10:00:44.115Z,13.46
2022-10-19T10:05:47.476Z,13.63
2022-10-19T10:11:05.193Z,13.68
2022-10-19T10:16:09.655Z,13.72
2022-10-19T10:21:25.292Z,13.92
2022-10-19T10:26:27.897Z,13.97
2022-10-19T10:31:30.639Z,14.04
2022-10-19T10:36:32.297Z,14.14
2022-10-19T10:41:40.547Z,14.22
2022-10-19T10:47:01.609Z,14.33
2022-10-19T10:52:09.980Z,14.48
2022-10-19T10:57:13.991Z,14.60
2022-10-19T11:02:42.952Z,14.64
2022-10-19T11:07:48.219Z,14.67
2022-10-19T11:12:58.405Z,14.77
2022-10-19T11:18:18.770Z,14.99
2022-10-19T11:23:44.684Z,14.96
2022-10-19T11:29:31.775Z,15.13
2022-10-19T11:35:06.530Z,15.20
2022-10-19T11:40:54.172Z,15.30
2022-10-19T11:46:29.460Z,15.44
2022-10-19T11:51:43.932Z,15.58
2022-10-19T11:57:02.849Z,15.59
2022-10-19T12:02:59.342Z,15.59
2022-10-19T12:08:12.065Z,15.91
2022-10-19T12:13:18.552Z,16.11
2022-10-19T12:18:58.138Z,16.13
2022-10-19T12:24:04.368Z,16.21
2022-10-19T12:29:14.411Z,16.11
2022-10-19T12:35:00.295Z,16.22
2022-10-19T12:40:18.604Z,16.29
2022-10-19T12:45:34.196Z,16.22
2022-10-19T12:50:51.411Z,16.35
2022-10-19T12:56:08.986Z,16.39
2022-10-19T13:01:33.251Z,16.36
2022-10-19T13:07:00.155Z,16.39
2022-10-19T13:12:21.421Z,16.44
2022-10-19T13:17:48.909Z,16.47
2022-10-19T13:22:51.467Z,16.53
2022-10-19T13:28:01.827Z,16.47
2022-10-19T13:33:31.538Z,16.58
2022-10-19T13:38:59.219Z,16.43
2022-10-19T13:44:11.426Z,16.36
2022-10-19T13:49:33.580Z,16.49
2022-10-19T13:55:13.605Z,16.44
2022-10-19T14:00:19.694Z,16.37
2022-10-19T14:05:39.256Z,16.36
2022-10-19T14:11:00.192Z,16.35
2022-10-19T14:16:03.136Z,16.31
2022-10-19T14:21:07.332Z,16.24
2022-10-19T14:26:20.226Z,16.17
2022-10-19T14:31:24.909Z,16.22
2022-10-19T14:36:43.105Z,16.31
2022-10-19T14:41:44.627Z,16.49
2022-10-19T14:46:48.235Z,16.81
2022-10-19T14:51:58.042Z,16.94
2022-10-19T14:57:11.779Z,16.94
2022-10-19T15:02:24.215Z,17.00
2022-10-19T15:07:35.340Z,17.01
2022-10-19T15:12:40.128Z,16.87
2022-10-19T15:18:04.416Z,16.74
2022-10-19T15:23:30.699Z,16.74
2022-10-19T15:28:38.959Z,16.75
2022-10-19T15:33:52.256Z,16.52
2022-10-19T15:39:18.270Z,16.45
2022-10-19T15:44:41.914Z,16.26
2022-10-19T15:49:44.262Z,15.98
2022-10-19T15:54:53.575Z,15.77
2022-10-19T15:59:57.100Z,15.54
2022-10-19T16:04:58.664Z,15.35
2022-10-19T16:10:00.214Z,15.20
2022-10-19T16:15:01.787Z,15.02
2022-10-19T16:20:04.558Z,15.09
2022-10-19T16:25:06.335Z,14.88
2022-10-19T16:30:08.824Z,14.74
2022-10-19T16:35:11.439Z,14.60
2022-10-19T16:40:12.890Z,14.52
2022-10-19T16:45:14.359Z,14.56
2022-10-19T16:50:16.016Z,14.25
2022-10-19T16:55:17.991Z,14.18
2022-10-19T17:00:19.444Z,14.19
2022-10-19T17:05:20.818Z,14.03
2022-10-19T17:10:22.272Z,14.06
2022-10-19T17:15:42.015Z,13.96
2022-10-19T17:20:44.183Z,13.88
2022-10-19T17:25:48.856Z,13.79
2022-10-19T17:30:52.225Z,13.62
2022-10-19T17:35:53.682Z,13.73
2022-10-19T17:40:55.276Z,13.80
2022-10-19T17:45:58.674Z,13.81
2022-10-19T17:51:04.070Z,13.70
2022-10-19T17:56:07.226Z,13.69
2022-10-19T18:01:11.223Z,13.68
2022-10-19T18:06:18.267Z,13.61
2022-10-19T18:11:26.036Z,13.64
2022-10-19T18:16:31.316Z,13.67
2022-10-19T18:21:38.371Z,13.63
2022-10-19T18:26:39.843Z,13.74
2022-10-19T18:31:41.463Z,13.80
2022-10-19T18:36:43.665Z,13.83
2022-10-19T18:41:45.235Z,13.78
2022-10-19T18:46:46.635Z,13.74
2022-10-19T18:51:54.074Z,13.67
2022-10-19T18:56:57.447Z,13.62
2022-10-19T19:01:58.912Z,13.55
2022-10-19T19:07:00.503Z,13.51
2022-10-19T19:12:01.998Z,13.46
2022-10-19T19:17:03.419Z,13.43
2022-10-19T19:22:08.808Z,13.32
2022-10-19T19:27:10.462Z,13.31
2022-10-19T19:32:11.981Z,13.31
2022-10-19T19:37:13.563Z,13.35
2022-10-19T19:42:16.220Z,13.33
2022-10-19T19:47:19.271Z,13.28
2022-10-19T19:52:20.865Z,13.21
2022-10-19T19:57:22.815Z,13.17
2022-10-19T20:02:24.288Z,13.14
2022-10-19T20:07:26.924Z,13.01
2022-10-19T20:12:29.192Z,13.10
2022-10-19T20:17:30.651Z,12.96
2022-10-19T20:22:32.336Z,12.90
2022-10-19T20:27:36.995Z,12.95
2022-10-19T20:32:39.105Z,12.75
2022-10-19T20:37:40.657Z,12.76
2022-10-19T20:42:43.759Z,12.76
2022-10-19T20:47:45.139Z,12.65
2022-10-19T20:52:46.654Z,12.61
2022-10-19T20:57:48.243Z,12.63
2022-10-19T21:02:49.720Z,12.68
2022-10-19T21:07:51.122Z,12.60
2022-10-19T21:12:52.505Z,12.65
2022-10-19T21:17:53.921Z,12.55
2022-10-19T21:22:55.339Z,12.59
2022-10-19T21:27:56.770Z,12.41
2022-10-19T21:32:58.323Z,12.43
2022-10-19T21:37:59.947Z,12.42
2022-10-19T21:43:01.383Z,12.42
2022-10-19T21:48:02.754Z,12.52
2022-10-19T21:53:04.204Z,12.50
2022-10-19T21:58:05.653Z,12.50
2022-10-19T22:03:07.285Z,12.38
2022-10-19T22:08:08.699Z,12.33
2022-10-19T22:13:10.150Z,12.27
2022-10-19T22:18:11.631Z,12.31
2022-10-19T22:23:13.014Z,12.32
2022-10-19T22:28:14.414Z,12.25
2022-10-19T22:33:15.895Z,12.31
2022-10-19T22:38:17.296Z,12.24
2022-10-19T22:43:19.047Z,12.20
2022-10-19T22:48:20.465Z,12.16
2022-10-19T22:53:23.239Z,12.09
2022-10-19T22:58:24.635Z,12.13
2022-10-19T23:03:26.076Z,12.13
2022-10-19T23:08:27.684Z,12.12
2022-10-19T23:13:29.211Z,12.16
2022-10-19T23:18:31.909Z,12.09
2022-10-19T23:23:34.587Z,12.13
2022-10-19T23:28:38.155Z,12.17
2022-10-19T23:33:40.190Z,12.08
2022-10-19T23:38:43.554Z,12.19
2022-10-19T23:43:45.596Z,12.12
2022-10-19T23:48:47.184Z,12.20
2022-10-19T23:53:51.021Z,12.37
2022-10-19T23:58:52.955Z,12.33
